Meteorología y climatología de Navarra
Datos de la estación - Meteo Navarra

Estación de Estella GN

Altitud 486 m.


Datos desde el 10/10/2019 hasta el 11/10/2019 en horario solar
Los datos son PROVISIONALES

Anterior Página 1 de 1 Siguiente Descargar: Formato para Excel 2000 o superior   Formato csv   Formato para OpenOffice Calc
Fecha Temperatura Humedad relativa Radiación global Insolación Precipitación Vel. viento 10 m Vel. viento 10 m Dir. viento 10 m
ºC % W/m² s l/m² m/s km/h º
10/10/2019 0:00 10.2 76 0.0 0 0.0 0.4 1.5 321
10/10/2019 0:10 10.0 77 0.0 0 0.0 1.1 3.8 13
10/10/2019 0:20 9.9 77 0.0 0 0.0 0.5 1.9 356
10/10/2019 0:30 9.3 79 0.0 0 0.0 0.1 0.3 346
10/10/2019 0:40 8.8 81 0.0 0 0.0 0.4 1.5 325
10/10/2019 0:50 9.0 81 0.0 0 0.0 0.9 3.4 319
10/10/2019 1:00 9.0 80 0.0 0 0.0 0.7 2.4 301
10/10/2019 1:10 8.8 81 0.0 0 0.0 1.1 3.9 317
10/10/2019 1:20 8.5 82 0.0 0 0.0 1.5 5.4 341
10/10/2019 1:30 8.5 82 0.0 0 0.0 1.2 4.4 338
10/10/2019 1:40 8.6 82 0.0 0 0.0 1.2 4.1 304
10/10/2019 1:50 8.2 82 0.0 0 0.0 0.6 2.1 240
10/10/2019 2:00 7.8 85 0.0 0 0.0 0.2 0.7 237
10/10/2019 2:10 7.7 86 0.0 0 0.0 0.4 1.4 273
10/10/2019 2:20 7.8 86 0.0 0 0.0 0.3 0.9 321
10/10/2019 2:30 7.9 86 0.0 0 0.0 0.7 2.4 350
10/10/2019 2:40 8.1 85 0.0 0 0.0 0.4 1.3 359
10/10/2019 2:50 8.5 83 0.0 0 0.0 0.3 1.2 0
10/10/2019 3:00 8.5 83 0.0 0 0.0 0.7 2.4 322
10/10/2019 3:10 8.2 85 0.0 0 0.0 1.5 5.3 316
10/10/2019 3:20 8.2 85 0.0 0 0.0 1.3 4.8 321
10/10/2019 3:30 8.1 86 0.0 0 0.0 1.7 6.0 336
10/10/2019 3:40 8.3 85 0.0 0 0.0 1.4 4.9 330
10/10/2019 3:50 8.0 85 0.0 0 0.0 1.2 4.2 319
10/10/2019 4:00 7.6 87 0.0 0 0.0 1.1 3.8 332
10/10/2019 4:10 7.5 87 0.0 0 0.0 0.6 2.2 305
10/10/2019 4:20 7.4 90 0.0 0 0.0 0.5 1.9 293
10/10/2019 4:30 7.8 87 0.0 0 0.0 1.3 4.5 332
10/10/2019 4:40 7.7 88 0.0 0 0.0 1.7 6.2 339
10/10/2019 4:50 7.8 87 0.0 0 0.0 2.4 8.7 352
10/10/2019 5:00 8.0 86 0.0 0 0.0 1.9 6.8 346
10/10/2019 5:10 7.9 86 0.0 0 0.0 1.7 6.2 341
10/10/2019 5:20 8.0 86 0.0 0 0.0 1.6 5.7 329
10/10/2019 5:30 7.9 86 0.0 0 0.0 1.2 4.4 340
10/10/2019 5:40 7.8 87 0.0 0 0.0 2.1 7.5 9
10/10/2019 5:50 7.5 87 0.0 0 0.0 2.0 7.1 350
10/10/2019 6:00 6.9 89 0.0 0 0.0 2.4 8.6 341
10/10/2019 6:10 6.8 90 0.0 0 0.0 2.2 7.8 329
10/10/2019 6:20 6.7 90 0.0 0 0.0 1.9 6.9 341
10/10/2019 6:30 6.8 91 0.0 0 0.0 2.0 7.2 327
10/10/2019 6:40 6.9 90 6.8 0 0.0 1.8 6.4 336
10/10/2019 6:50 6.8 90 19.4 0 0.0 2.2 8.0 348
10/10/2019 7:00 6.8 90 24.8 0 0.0 2.1 7.4 343
10/10/2019 7:10 6.9 90 29.8 0 0.0 1.7 6.2 333
10/10/2019 7:20 7.1 89 49.5 88 0.0 2.1 7.5 335
10/10/2019 7:30 7.8 87 159.0 510 0.0 2.2 8.1 336
10/10/2019 7:40 9.1 82 215.3 600 0.0 1.9 6.8 336
10/10/2019 7:50 9.7 77 239.9 600 0.0 2.0 7.1 322
10/10/2019 8:00 9.9 77 266.2 600 0.0 1.8 6.4 323
10/10/2019 8:10 10.6 75 294.7 600 0.0 1.2 4.4 315
10/10/2019 8:20 11.1 73 321.7 600 0.0 1.4 4.9 314
10/10/2019 8:30 11.7 71 347.7 600 0.0 1.5 5.4 327
10/10/2019 8:40 12.6 68 372.8 600 0.0 1.5 5.2 331
10/10/2019 8:50 13.2 66 399.2 600 0.0 1.4 5.1 329
10/10/2019 9:00 13.7 65 426.5 600 0.0 1.5 5.5 288
10/10/2019 9:10 14.3 62 452.4 600 0.0 1.5 5.4 280
10/10/2019 9:20 14.7 61 477.2 600 0.0 1.7 6.1 286
10/10/2019 9:30 15.1 60 501.5 600 0.0 1.3 4.6 298
10/10/2019 9:40 15.7 58 524.6 600 0.0 1.6 5.7 281
10/10/2019 9:50 16.1 56 545.8 600 0.0 1.6 5.6 290
10/10/2019 10:00 16.8 54 565.6 600 0.0 1.5 5.5 260
10/10/2019 10:10 17.3 51 585.0 600 0.0 1.4 5.2 283
10/10/2019 10:20 17.8 49 601.5 600 0.0 1.6 5.7 275
10/10/2019 10:30 18.1 47 614.6 600 0.0 1.2 4.2 295
10/10/2019 10:40 18.2 46 629.1 600 0.0 2.0 7.3 244
10/10/2019 10:50 18.5 47 643.2 600 0.0 1.8 6.3 288
10/10/2019 11:00 18.8 46 652.8 600 0.0 1.5 5.2 278
10/10/2019 11:10 19.2 44 662.0 600 0.0 1.0 3.7 269
10/10/2019 11:20 19.3 44 668.7 600 0.0 1.8 6.5 224
10/10/2019 11:30 19.8 42 670.9 600 0.0 1.3 4.7 228
10/10/2019 11:40 20.0 42 671.5 600 0.0 1.8 6.5 240
10/10/2019 11:50 19.7 42 677.1 600 0.0 1.7 6.0 174
10/10/2019 12:00 19.8 42 677.8 600 0.0 1.6 5.9 204
10/10/2019 12:10 20.0 41 676.1 600 0.0 1.8 6.6 238
10/10/2019 12:20 20.4 40 674.2 600 0.0 1.6 5.7 240
10/10/2019 12:30 20.6 39 669.9 600 0.0 1.7 6.0 201
10/10/2019 12:40 21.0 38 664.4 600 0.0 1.7 6.2 242
10/10/2019 12:50 21.1 37 657.3 600 0.0 1.5 5.5 110
10/10/2019 13:00 21.4 36 647.4 600 0.0 1.0 3.6 154
10/10/2019 13:10 21.5 36 639.0 600 0.0 1.5 5.5 179
10/10/2019 13:20 21.3 35 616.3 600 0.0 0.7 2.6 266
10/10/2019 13:30 21.6 36 613.1 600 0.0 2.0 7.1 226
10/10/2019 13:40 21.7 35 589.3 600 0.0 1.4 4.9 202
10/10/2019 13:50 21.4 35 575.0 600 0.0 1.3 4.8 76
10/10/2019 14:00 22.0 34 559.8 600 0.0 1.2 4.4 129
10/10/2019 14:10 21.9 33 538.9 600 0.0 0.8 3.0 256
10/10/2019 14:20 22.6 32 518.9 600 0.0 1.3 4.6 192
10/10/2019 14:30 22.2 32 496.7 600 0.0 1.4 4.9 144
10/10/2019 14:40 21.9 33 474.6 600 0.0 2.0 7.1 132
10/10/2019 14:50 22.2 32 450.5 600 0.0 1.8 6.4 222
10/10/2019 15:00 22.5 32 424.1 600 0.0 2.0 7.0 193
10/10/2019 15:10 22.3 32 397.6 600 0.0 1.7 6.2 195
10/10/2019 15:20 22.6 31 369.7 600 0.0 1.4 4.9 207
10/10/2019 15:30 22.8 31 339.8 600 0.0 1.0 3.6 171
10/10/2019 15:40 22.8 31 310.0 600 0.0 1.3 4.6 193
10/10/2019 15:50 22.7 31 279.9 600 0.0 1.5 5.2 203
10/10/2019 16:00 22.4 32 249.0 600 0.0 1.3 4.5 200
10/10/2019 16:10 22.4 32 217.9 600 0.0 1.8 6.4 201
10/10/2019 16:20 22.0 32 186.8 600 0.0 2.5 9.0 205
10/10/2019 16:30 21.9 33 156.4 600 0.0 1.7 6.0 200
10/10/2019 16:40 21.9 33 125.9 600 0.0 1.1 4.1 191
10/10/2019 16:50 21.9 34 95.1 600 0.0 1.0 3.7 199
10/10/2019 17:00 21.4 36 66.7 600 0.0 0.8 2.7 175
10/10/2019 17:10 20.7 37 32.7 304 0.0 0.8 2.8 163
10/10/2019 17:20 19.9 39 0.0 0 0.0 0.6 2.0 112
10/10/2019 17:30 19.2 41 0.0 0 0.0 1.4 5.0 88
10/10/2019 17:40 18.9 43 0.0 0 0.0 0.6 2.2 84
10/10/2019 17:50 17.9 47 0.0 0 0.0 0.7 2.5 46
10/10/2019 18:00 17.5 49 0.0 0 0.0 1.1 4.0 20
10/10/2019 18:10 17.1 51 0.0 0 0.0 0.3 1.0 12
10/10/2019 18:20 16.6 54 0.0 0 0.0 0.6 2.1 9
10/10/2019 18:30 17.0 52 0.0 0 0.0 0.9 3.2 308
10/10/2019 18:40 16.9 52 0.0 0 0.0 0.7 2.4 275
10/10/2019 18:50 16.3 55 0.0 0 0.0 0.9 3.3 355
10/10/2019 19:00 15.5 58 0.0 0 0.0 0.3 1.0 324
10/10/2019 19:10 14.8 60 0.0 0 0.0 0.0 0.0 0
10/10/2019 19:20 13.9 63 0.0 0 0.0 0.0 0.0 0
10/10/2019 19:30 13.9 64 0.0 0 0.0 0.3 1.2 332
10/10/2019 19:40 13.7 65 0.0 0 0.0 0.4 1.3 324
10/10/2019 19:50 13.8 64 0.0 0 0.0 0.3 0.9 294
10/10/2019 20:00 12.9 68 0.0 0 0.0 0.1 0.4 294
10/10/2019 20:10 12.8 68 0.0 0 0.0 0.1 0.2 72
10/10/2019 20:20 13.1 67 0.0 0 0.0 0.2 0.7 48
10/10/2019 20:30 12.8 67 0.0 0 0.0 0.1 0.3 36
10/10/2019 20:40 12.6 69 0.0 0 0.0 0.0 0.0 0
10/10/2019 20:50 12.1 70 0.0 0 0.0 0.1 0.4 355
10/10/2019 21:00 12.1 71 0.0 0 0.0 0.3 0.9 333
10/10/2019 21:10 11.8 72 0.0 0 0.0 0.6 2.1 330
10/10/2019 21:20 11.8 72 0.0 0 0.0 0.1 0.5 51
10/10/2019 21:30 11.4 74 0.0 0 0.0 0.0 0.0 0
10/10/2019 21:40 11.0 75 0.0 0 0.0 0.0 0.1 98
10/10/2019 21:50 10.9 76 0.0 0 0.0 0.1 0.3 195
10/10/2019 22:00 10.9 76 0.0 0 0.0 0.6 2.0 314
10/10/2019 22:10 11.0 76 0.0 0 0.0 0.1 0.5 331
10/10/2019 22:20 11.3 75 0.0 0 0.0 0.2 0.8 331
10/10/2019 22:30 10.9 76 0.0 0 0.0 0.0 0.0 0
10/10/2019 22:40 10.6 78 0.0 0 0.0 0.0 0.0 0
10/10/2019 22:50 10.6 77 0.0 0 0.0 0.0 0.0 0
10/10/2019 23:00 10.2 79 0.0 0 0.0 0.0 0.0 331
10/10/2019 23:10 10.0 80 0.0 0 0.0 0.5 1.9 56
10/10/2019 23:20 10.1 79 0.0 0 0.0 0.3 1.1 297
10/10/2019 23:30 9.9 79 0.0 0 0.0 0.1 0.4 295
10/10/2019 23:40 9.8 81 0.0 0 0.0 0.0 0.0 0
10/10/2019 23:50 9.5 81 0.0 0 0.0 0.2 0.5 295
Anterior Página 1 de 1 Siguiente

NOTA: Tipo de datos según el color:
   - Valores diarios o 10 minutos correctos
   - Valores diarios calculados a partir de un número de datos 10 minutos menor que 144 y mayor que 120, o de un número de datos semihorarios menor que 48 y mayor que 40 (caso de las estaciones de Riegos de Navarra y del MARM)
   - Valores diez minutos estimados


Contacto        Enlaces        Aviso legal